Main page
METAR-TAF:

METAR-TAF

Airports :

Ulukhaktok/Holman Airport

Ulukhaktok, Northwest Territories, Canada

latitude: 70-46N, longitude: 117-48W, elevation: 36 m

Current weather observation

The report was made 11 hours and 27 minutes ago, at 00:00 UTC
Wind 8 kt from the North/Northeast
Temperature -17°C
Humidity 71%
Pressure 1031 hPa
Visibility: 24.1 km
Few clouds at a height of 5200 ft

METAR: CYHI 160000Z 02008KT 15SM FEW052 M17/M21 A3046 RMK SC1 LST STFD OBS/NXT16/1400Z SLP323

Time: 05:27 (11:27 UTC)

Forecast

The report was made 16 hours and 47 minutes ago, at 18:40 UTC
Forecast valid from 15 at 19 UTC to 15 at 24 UTC
Wind 8 kt from the North
Visibility: 10 km
Scattered clouds at a height of 2000 ft
Temporary
from 15 at 19 UTC to 15 at 21 UTC
Broken clouds at a height of 2000 ft
From 15 at 2100 UTC
Wind 12 kt from the Northwest
Visibility: 10 km
Few clouds at a height of 2000 ft

TAF: CYHI 151840Z 1519/1524 36008KT P6SM SCT020 TEMPO 1519/1521 BKN020 FM152100 31012KT P6SM FEW020 RMK NXT FCST BY 161600Z

Weather observations and forecasts of more than 4000 airports (METAR and TAF reports).

The available stations are represented by yellow and red dots on the map.

Hover mouse over dot to see the name of the station.

Then click to see weather observations and forecasts.

To change the map : click on the green buttons with a black cross to zoom in, on the green button with a dash to zoom out, or on the green arrows for adjacent maps.


METAR-TAF: